createdAt,value
2019-03-10T00:00:27.345Z,60.99
2019-03-10T00:02:57.001Z,60.72
2019-03-10T00:05:26.565Z,60.71
2019-03-10T00:07:56.294Z,61.10
2019-03-10T00:10:25.938Z,60.97
2019-03-10T00:12:55.565Z,60.38
2019-03-10T00:15:26.776Z,60.03
2019-03-10T00:17:56.357Z,60.33
2019-03-10T00:20:26.026Z,60.70
2019-03-10T00:22:55.645Z,59.77
2019-03-10T00:25:25.178Z,59.41
2019-03-10T00:27:54.717Z,58.85
2019-03-10T00:30:24.349Z,58.85
2019-03-10T00:32:53.882Z,58.57
2019-03-10T00:35:23.521Z,57.90
2019-03-10T00:37:53.056Z,57.43
2019-03-10T00:40:25.855Z,57.44
2019-03-10T00:42:58.659Z,57.45
2019-03-10T00:45:31.271Z,57.45
2019-03-10T00:48:03.915Z,56.75
2019-03-10T00:50:36.541Z,56.57
2019-03-10T00:53:05.990Z,56.87
2019-03-10T00:55:35.558Z,57.08
2019-03-10T00:58:05.088Z,56.91
2019-03-10T01:00:34.579Z,56.46
2019-03-10T01:03:04.178Z,56.48
2019-03-10T01:05:33.806Z,56.48
2019-03-10T01:08:03.100Z,56.36
2019-03-10T01:10:33.038Z,56.79
2019-03-10T01:13:02.736Z,56.45
2019-03-10T01:15:32.357Z,56.62
2019-03-10T01:18:03.433Z,56.33
2019-03-10T01:20:32.966Z,56.15
2019-03-10T01:23:02.501Z,56.02
2019-03-10T01:25:32.125Z,56.44
2019-03-10T01:28:01.080Z,56.55
2019-03-10T01:30:33.689Z,56.12
2019-03-10T01:33:06.298Z,56.13
2019-03-10T01:35:35.910Z,56.19
2019-03-10T01:38:05.455Z,56.29
2019-03-10T01:40:34.950Z,56.31
2019-03-10T01:43:04.560Z,56.07
2019-03-10T01:45:34.117Z,56.40
2019-03-10T01:48:03.655Z,56.39
2019-03-10T01:50:33.225Z,56.66
2019-03-10T01:53:03.363Z,56.59
2019-03-10T01:55:33.010Z,56.95
2019-03-10T01:58:02.559Z,56.95
2019-03-10T02:00:32.193Z,57.19
2019-03-10T02:03:01.764Z,56.94
2019-03-10T02:05:31.300Z,56.63
2019-03-10T02:08:00.872Z,57.17
2019-03-10T02:10:30.396Z,57.10
2019-03-10T02:13:00.288Z,57.09
2019-03-10T02:15:29.826Z,57.18
2019-03-10T02:17:59.465Z,57.61
2019-03-10T02:20:28.915Z,57.86
2019-03-10T02:22:58.391Z,57.97
2019-03-10T02:25:27.660Z,58.18
2019-03-10T02:27:57.127Z,58.25
2019-03-10T02:30:26.645Z,58.62
2019-03-10T02:32:56.115Z,58.88
2019-03-10T02:35:25.565Z,59.47
2019-03-10T02:37:55.025Z,59.42
2019-03-10T02:40:24.550Z,59.41
2019-03-10T02:42:54.009Z,59.66
2019-03-10T02:45:23.456Z,59.68
2019-03-10T02:47:52.884Z,59.62
2019-03-10T02:50:22.076Z,59.42
2019-03-10T02:52:51.710Z,59.97
2019-03-10T02:55:21.229Z,60.18
2019-03-10T02:57:50.849Z,60.47
2019-03-10T03:00:20.459Z,60.43
2019-03-10T03:02:50.047Z,60.11
2019-03-10T03:05:19.554Z,59.77
2019-03-10T03:07:49.090Z,59.87
2019-03-10T03:10:18.622Z,60.65
2019-03-10T03:12:47.980Z,59.57
2019-03-10T03:15:17.459Z,59.17
2019-03-10T03:17:46.966Z,59.29
2019-03-10T03:20:16.567Z,59.00
2019-03-10T03:22:46.082Z,60.12
2019-03-10T03:25:16.442Z,60.12
2019-03-10T03:27:45.911Z,60.43
2019-03-10T03:30:17.422Z,60.38
2019-03-10T03:32:46.997Z,59.84
2019-03-10T03:35:19.587Z,59.83
2019-03-10T03:37:49.033Z,60.57
2019-03-10T03:40:18.355Z,60.73
2019-03-10T03:42:47.790Z,61.04
2019-03-10T03:45:17.315Z,61.24
2019-03-10T03:47:46.942Z,61.28
2019-03-10T03:50:16.552Z,61.24
2019-03-10T03:52:46.004Z,61.77
2019-03-10T03:55:16.059Z,62.61
2019-03-10T03:57:45.601Z,62.61
2019-03-10T04:00:15.198Z,63.04
2019-03-10T04:02:44.751Z,63.18
2019-03-10T04:05:14.927Z,64.04
2019-03-10T04:07:44.438Z,64.44
2019-03-10T04:10:14.624Z,64.82
2019-03-10T04:12:44.232Z,65.62
2019-03-10T04:15:14.465Z,65.92
2019-03-10T04:17:43.904Z,66.42
2019-03-10T04:20:14.085Z,66.42
2019-03-10T04:22:43.531Z,66.66
2019-03-10T04:25:13.705Z,67.71
2019-03-10T04:27:43.248Z,68.46
2019-03-10T04:30:14.011Z,69.19
2019-03-10T04:32:43.479Z,69.63
2019-03-10T04:35:13.984Z,70.22
2019-03-10T04:37:43.448Z,70.20
2019-03-10T04:40:13.552Z,70.40
2019-03-10T04:42:43.018Z,70.30
2019-03-10T04:45:13.129Z,69.36
2019-03-10T04:47:42.649Z,70.08
2019-03-10T04:50:12.305Z,71.04
2019-03-10T04:52:41.922Z,71.71
2019-03-10T04:55:12.884Z,71.99
2019-03-10T04:57:49.862Z,72.21
2019-03-10T05:00:19.457Z,72.61
2019-03-10T05:02:48.945Z,73.00
2019-03-10T05:05:18.380Z,72.87
2019-03-10T05:07:48.030Z,73.83
2019-03-10T05:10:17.546Z,74.15
2019-03-10T05:12:47.025Z,74.42
2019-03-10T05:15:16.601Z,74.79
2019-03-10T05:17:46.076Z,75.15
2019-03-10T05:20:15.864Z,75.27
2019-03-10T05:22:45.358Z,75.57
2019-03-10T05:25:17.931Z,75.36
2019-03-10T05:27:47.467Z,75.43
2019-03-10T05:30:17.374Z,74.89
2019-03-10T05:32:46.867Z,75.64
2019-03-10T05:35:16.734Z,75.79
2019-03-10T05:37:46.679Z,76.06
2019-03-10T05:40:16.132Z,75.83
2019-03-10T05:42:45.618Z,77.82
2019-03-10T05:45:15.077Z,77.23
2019-03-10T05:47:44.547Z,77.06
2019-03-10T05:50:14.061Z,77.06
2019-03-10T05:52:43.550Z,77.23
2019-03-10T05:55:13.184Z,77.14
2019-03-10T05:57:42.667Z,77.50
2019-03-10T06:00:12.375Z,79.60
2019-03-10T06:02:41.997Z,79.62
2019-03-10T06:05:11.591Z,78.49
2019-03-10T06:07:41.105Z,79.46
2019-03-10T06:10:11.745Z,80.29
2019-03-10T06:12:41.261Z,79.58
2019-03-10T06:15:11.206Z,79.27
2019-03-10T06:17:41.021Z,79.45
2019-03-10T06:20:11.151Z,79.31
2019-03-10T06:23:01.319Z,79.21
2019-03-10T06:25:30.867Z,79.43
2019-03-10T06:28:00.557Z,79.11
2019-03-10T06:30:30.178Z,78.91
2019-03-10T06:32:59.567Z,79.18
2019-03-10T06:35:29.058Z,79.39
2019-03-10T06:37:58.534Z,79.66
2019-03-10T06:40:32.227Z,79.16
2019-03-10T06:42:59.366Z,78.72
2019-03-10T06:45:28.986Z,78.68
2019-03-10T06:47:58.526Z,78.90
2019-03-10T06:50:28.061Z,79.24
2019-03-10T06:52:57.535Z,79.05
2019-03-10T06:55:26.993Z,78.68
2019-03-10T06:57:56.435Z,78.68
2019-03-10T07:00:24.609Z,78.75
2019-03-10T07:02:54.144Z,78.74
2019-03-10T07:05:23.700Z,78.65
2019-03-10T07:07:53.335Z,78.89
2019-03-10T07:10:22.806Z,78.74
2019-03-10T07:12:52.272Z,78.19
2019-03-10T07:15:21.887Z,78.53
2019-03-10T07:17:51.430Z,78.53
2019-03-10T07:20:21.265Z,78.87
2019-03-10T07:22:53.109Z,78.66
2019-03-10T07:25:22.632Z,78.61
2019-03-10T07:27:53.999Z,78.48
2019-03-10T07:30:26.710Z,78.44
2019-03-10T07:32:57.851Z,77.85
2019-03-10T07:35:29.161Z,78.28
2019-03-10T07:38:00.295Z,78.49
2019-03-10T07:40:31.474Z,78.52
2019-03-10T07:43:02.681Z,78.75
2019-03-10T07:45:33.960Z,79.26
2019-03-10T07:48:05.083Z,79.13
2019-03-10T07:50:36.215Z,79.12
2019-03-10T07:53:07.988Z,78.92
2019-03-10T07:55:39.140Z,78.59
2019-03-10T07:58:10.629Z,78.61
2019-03-10T08:00:41.814Z,78.80
2019-03-10T08:03:12.351Z,79.03
2019-03-10T08:05:43.721Z,78.39
2019-03-10T08:08:15.187Z,78.50
2019-03-10T08:10:46.442Z,78.41
2019-03-10T08:13:20.559Z,78.02
2019-03-10T08:15:51.004Z,77.66
2019-03-10T08:18:22.492Z,77.88
2019-03-10T08:20:53.672Z,77.46
2019-03-10T08:23:24.837Z,77.08
2019-03-10T08:25:55.960Z,76.24
2019-03-10T08:28:27.193Z,76.17
2019-03-10T08:30:58.346Z,75.77
2019-03-10T08:33:29.597Z,75.74
2019-03-10T08:36:00.714Z,75.51
2019-03-10T08:38:31.822Z,75.17
2019-03-10T08:41:03.449Z,74.46
2019-03-10T08:43:34.689Z,74.23
2019-03-10T08:46:06.152Z,73.77
2019-03-10T08:48:37.267Z,73.35
2019-03-10T08:51:08.493Z,72.61
2019-03-10T08:53:38.403Z,72.07
2019-03-10T08:56:09.622Z,71.50
2019-03-10T08:58:40.089Z,71.06
2019-03-10T09:01:11.658Z,70.76
2019-03-10T09:03:43.014Z,71.37
2019-03-10T09:06:14.223Z,70.43
2019-03-10T09:08:45.395Z,71.47
2019-03-10T09:11:16.535Z,71.79
2019-03-10T09:13:48.099Z,71.37
2019-03-10T09:16:19.257Z,70.26
2019-03-10T09:18:50.437Z,69.14
2019-03-10T09:21:21.633Z,68.28
2019-03-10T09:23:52.928Z,68.50
2019-03-10T09:26:24.273Z,67.56
2019-03-10T09:28:55.164Z,67.98
2019-03-10T09:31:25.534Z,69.12
2019-03-10T09:33:56.779Z,69.62
2019-03-10T09:36:27.936Z,69.44
2019-03-10T09:38:59.115Z,70.21
2019-03-10T09:41:30.411Z,70.43
2019-03-10T09:44:03.699Z,70.90
2019-03-10T09:46:34.583Z,70.59
2019-03-10T09:49:05.927Z,70.56
2019-03-10T09:51:37.075Z,70.93
2019-03-10T09:54:08.591Z,70.98
2019-03-10T09:56:39.807Z,70.57
2019-03-10T09:59:11.231Z,71.67
2019-03-10T10:01:42.367Z,71.91
2019-03-10T10:04:13.509Z,71.42
2019-03-10T10:06:44.687Z,71.51
2019-03-10T10:09:14.753Z,71.83
2019-03-10T10:11:45.892Z,72.05
2019-03-10T10:14:17.111Z,71.04
2019-03-10T10:16:48.345Z,70.32
2019-03-10T10:19:19.554Z,69.79
2019-03-10T10:21:50.708Z,70.00
2019-03-10T10:24:21.854Z,70.29
2019-03-10T10:26:53.150Z,70.50
2019-03-10T10:29:24.269Z,68.50
2019-03-10T10:31:55.496Z,68.28
2019-03-10T10:34:25.764Z,67.01
2019-03-10T10:36:56.920Z,66.26
2019-03-10T10:39:31.427Z,66.95
2019-03-10T10:42:05.801Z,68.35
2019-03-10T10:44:37.107Z,69.67
2019-03-10T10:47:08.378Z,70.55
2019-03-10T10:49:39.585Z,69.60
2019-03-10T10:52:10.272Z,69.82
2019-03-10T10:54:41.366Z,69.36
2019-03-10T10:57:12.618Z,69.49
2019-03-10T10:59:43.749Z,70.56
2019-03-10T11:02:14.899Z,69.30
2019-03-10T11:04:46.187Z,70.61
2019-03-10T11:07:17.533Z,68.66
2019-03-10T11:09:48.696Z,68.31
2019-03-10T11:12:20.014Z,67.88
2019-03-10T11:14:51.200Z,67.96
2019-03-10T11:17:22.710Z,67.68
2019-03-10T11:19:54.133Z,67.45
2019-03-10T11:22:25.292Z,66.47
2019-03-10T11:24:56.444Z,65.78
2019-03-10T11:27:27.671Z,64.98
2019-03-10T11:29:58.824Z,64.48
2019-03-10T11:32:30.151Z,65.12
2019-03-10T11:35:00.655Z,64.57
2019-03-10T11:37:32.749Z,64.01
2019-03-10T11:40:04.097Z,64.17
2019-03-10T11:42:34.498Z,64.05
2019-03-10T11:45:08.397Z,64.48
2019-03-10T11:47:39.439Z,64.68
2019-03-10T11:50:11.713Z,65.35
2019-03-10T11:52:43.037Z,65.37
2019-03-10T11:55:14.603Z,64.66
2019-03-10T11:57:45.775Z,63.57
2019-03-10T12:00:18.829Z,61.89
2019-03-10T12:02:50.066Z,61.21
2019-03-10T12:05:21.276Z,60.62
2019-03-10T12:07:52.524Z,60.91
2019-03-10T12:10:22.223Z,61.45
2019-03-10T12:12:51.752Z,61.13
2019-03-10T12:15:21.322Z,61.63
2019-03-10T12:17:50.930Z,63.36
2019-03-10T12:20:20.367Z,63.73
2019-03-10T12:22:49.728Z,61.96
2019-03-10T12:25:19.454Z,62.30
2019-03-10T12:27:48.661Z,61.74
2019-03-10T12:30:18.172Z,59.87
2019-03-10T12:32:47.705Z,58.93
2019-03-10T12:35:17.075Z,58.87
2019-03-10T12:37:46.557Z,58.07
2019-03-10T12:40:16.127Z,58.71
2019-03-10T12:42:45.686Z,56.72
2019-03-10T12:45:15.216Z,57.49
2019-03-10T12:47:44.797Z,56.17
2019-03-10T12:50:14.833Z,55.64
2019-03-10T12:52:44.444Z,53.92
2019-03-10T12:55:16.825Z,53.40
2019-03-10T12:57:46.872Z,53.26
2019-03-10T13:00:16.777Z,52.45
2019-03-10T13:02:46.239Z,51.74
2019-03-10T13:05:16.044Z,51.98
2019-03-10T13:07:45.561Z,52.24
2019-03-10T13:10:15.096Z,51.88
2019-03-10T13:12:44.571Z,54.56
2019-03-10T13:15:14.201Z,52.23
2019-03-10T13:17:44.005Z,52.98
2019-03-10T13:20:13.720Z,51.03
2019-03-10T13:22:43.182Z,50.98
2019-03-10T13:25:13.903Z,50.40
2019-03-10T13:27:43.522Z,49.75
2019-03-10T13:30:15.407Z,49.14
2019-03-10T13:32:45.220Z,48.07
2019-03-10T13:35:14.905Z,48.61
2019-03-10T13:37:44.454Z,46.64
2019-03-10T13:40:15.038Z,43.92
2019-03-10T13:42:44.525Z,44.63
2019-03-10T13:45:16.962Z,44.79
2019-03-10T13:47:46.569Z,44.38
2019-03-10T13:50:16.640Z,43.88
2019-03-10T13:52:46.188Z,41.94
2019-03-10T13:55:15.774Z,40.80
2019-03-10T13:57:45.313Z,39.43
2019-03-10T14:00:19.046Z,39.75
2019-03-10T14:02:48.511Z,38.63
2019-03-10T14:05:18.047Z,37.84
2019-03-10T14:07:47.524Z,38.51
2019-03-10T14:10:17.313Z,38.11
2019-03-10T14:12:46.874Z,38.40
2019-03-10T14:15:17.181Z,38.76
2019-03-10T14:17:46.719Z,38.00
2019-03-10T14:20:17.034Z,37.75
2019-03-10T14:22:46.631Z,38.41
2019-03-10T14:25:16.920Z,38.08
2019-03-10T14:27:46.399Z,38.27
2019-03-10T14:30:18.187Z,38.45
2019-03-10T14:32:48.033Z,38.06
2019-03-10T14:35:19.225Z,37.84
2019-03-10T14:37:48.806Z,37.93
2019-03-10T14:40:19.790Z,37.28
2019-03-10T14:42:49.497Z,37.56
2019-03-10T14:45:19.467Z,38.10
2019-03-10T14:47:49.453Z,38.20
2019-03-10T14:50:19.734Z,38.67
2019-03-10T14:52:49.329Z,38.87
2019-03-10T14:55:20.536Z,38.89
2019-03-10T14:57:49.811Z,38.55
2019-03-10T15:00:22.459Z,38.56
2019-03-10T15:02:52.100Z,38.78
2019-03-10T15:05:21.981Z,38.84
2019-03-10T15:07:51.542Z,39.00
2019-03-10T15:10:21.125Z,39.50
2019-03-10T15:12:50.648Z,39.28
2019-03-10T15:15:23.123Z,39.29
2019-03-10T15:17:52.812Z,39.25
2019-03-10T15:20:22.450Z,38.29
2019-03-10T15:22:51.900Z,36.88
2019-03-10T15:25:24.987Z,37.45
2019-03-10T15:27:53.857Z,36.99
2019-03-10T15:30:25.726Z,36.74
2019-03-10T15:32:55.432Z,36.91
2019-03-10T15:35:24.987Z,37.43
2019-03-10T15:37:54.547Z,37.11
2019-03-10T15:40:24.187Z,36.84
2019-03-10T15:42:53.719Z,37.07
2019-03-10T15:45:23.234Z,37.03
2019-03-10T15:47:52.776Z,36.21
2019-03-10T15:50:24.424Z,35.82
2019-03-10T15:52:54.256Z,35.88
2019-03-10T15:55:23.856Z,36.17
2019-03-10T15:57:54.237Z,35.79
2019-03-10T16:00:25.147Z,35.28
2019-03-10T16:02:54.742Z,35.33
2019-03-10T16:05:24.537Z,35.70
2019-03-10T16:07:54.210Z,35.38
2019-03-10T16:10:23.284Z,34.77
2019-03-10T16:12:52.815Z,35.51
2019-03-10T16:15:25.650Z,35.50
2019-03-10T16:17:55.158Z,35.89
2019-03-10T16:20:24.767Z,36.24
2019-03-10T16:22:55.334Z,34.98
2019-03-10T16:25:25.199Z,35.13
2019-03-10T16:27:54.653Z,35.16
2019-03-10T16:30:26.453Z,34.57
2019-03-10T16:32:56.191Z,34.66
2019-03-10T16:35:26.024Z,34.36
2019-03-10T16:37:56.143Z,34.03
2019-03-10T16:40:25.715Z,34.00
2019-03-10T16:42:55.336Z,34.24
2019-03-10T16:45:26.972Z,34.74
2019-03-10T16:47:57.843Z,34.78
2019-03-10T16:50:28.899Z,35.30
2019-03-10T16:52:58.529Z,35.61
2019-03-10T16:55:28.055Z,35.83
2019-03-10T16:57:57.575Z,35.77
2019-03-10T17:00:53.100Z,36.09
2019-03-10T17:03:19.753Z,35.98
2019-03-10T17:05:50.691Z,35.94
2019-03-10T17:08:20.262Z,35.65
2019-03-10T17:10:49.877Z,35.86
2019-03-10T17:13:19.597Z,35.52
2019-03-10T17:15:49.164Z,35.06
2019-03-10T17:18:18.872Z,35.09
2019-03-10T17:20:48.334Z,35.00
2019-03-10T17:23:18.152Z,34.76
2019-03-10T17:25:47.734Z,34.42
2019-03-10T17:28:17.377Z,34.68
2019-03-10T17:30:46.890Z,34.43
2019-03-10T17:33:16.497Z,34.56
2019-03-10T17:35:46.063Z,34.67
2019-03-10T17:38:15.894Z,34.56
2019-03-10T17:40:45.518Z,34.19
2019-03-10T17:43:15.110Z,34.35
2019-03-10T17:45:44.608Z,34.16
2019-03-10T17:48:14.466Z,34.35
2019-03-10T17:50:44.057Z,34.52
2019-03-10T17:53:14.069Z,42.19
2019-03-10T17:55:43.632Z,47.83
2019-03-10T17:58:13.419Z,50.94
2019-03-10T18:00:42.978Z,52.86
2019-03-10T18:03:52.468Z,54.34
2019-03-10T18:06:22.068Z,56.36
2019-03-10T18:08:51.736Z,56.44
2019-03-10T18:11:22.319Z,58.31
2019-03-10T18:13:52.163Z,60.10
2019-03-10T18:16:21.841Z,60.66
2019-03-10T18:18:51.615Z,60.66
2019-03-10T18:21:21.127Z,61.82
2019-03-10T18:23:50.657Z,62.11
2019-03-10T18:26:22.733Z,62.36
2019-03-10T18:28:52.368Z,62.67
2019-03-10T18:31:21.806Z,62.19
2019-03-10T18:33:51.272Z,62.60
2019-03-10T18:36:20.880Z,61.54
2019-03-10T18:38:50.408Z,61.17
2019-03-10T18:41:20.036Z,60.60
2019-03-10T18:43:49.583Z,59.79
2019-03-10T18:46:19.059Z,59.87
2019-03-10T18:48:48.510Z,59.46
2019-03-10T18:51:18.177Z,59.51
2019-03-10T18:53:47.756Z,59.11
2019-03-10T18:56:17.233Z,59.09
2019-03-10T18:58:46.668Z,58.16
2019-03-10T19:01:17.291Z,58.41
2019-03-10T19:03:47.140Z,58.05
2019-03-10T19:06:17.280Z,57.60
2019-03-10T19:08:46.719Z,58.02
2019-03-10T19:11:16.176Z,57.31
2019-03-10T19:13:45.710Z,56.95
2019-03-10T19:16:15.521Z,57.10
2019-03-10T19:18:45.042Z,57.05
2019-03-10T19:21:14.825Z,56.48
2019-03-10T19:23:44.329Z,55.97
2019-03-10T19:26:14.287Z,56.45
2019-03-10T19:28:43.744Z,55.53
2019-03-10T19:31:13.457Z,55.17
2019-03-10T19:33:42.890Z,55.33
2019-03-10T19:36:12.777Z,55.61
2019-03-10T19:38:42.223Z,55.33
2019-03-10T19:41:12.509Z,55.63
2019-03-10T19:43:41.744Z,54.79
2019-03-10T19:46:11.777Z,54.59
2019-03-10T19:48:41.315Z,55.01
2019-03-10T19:51:11.085Z,53.92
2019-03-10T19:53:40.699Z,54.14
2019-03-10T19:56:10.339Z,54.14
2019-03-10T19:58:39.889Z,54.00
2019-03-10T20:01:09.611Z,54.02
2019-03-10T20:03:38.794Z,53.83
2019-03-10T20:06:08.081Z,53.99
2019-03-10T20:08:37.560Z,53.57
2019-03-10T20:11:07.154Z,53.31
2019-03-10T20:13:36.608Z,53.96
2019-03-10T20:16:06.141Z,53.63
2019-03-10T20:18:35.620Z,53.35
2019-03-10T20:21:05.191Z,53.40
2019-03-10T20:23:34.672Z,52.93
2019-03-10T20:26:04.140Z,51.93
2019-03-10T20:28:35.268Z,51.61
2019-03-10T20:31:04.950Z,51.54
2019-03-10T20:33:34.600Z,50.88
2019-03-10T20:36:04.179Z,50.85
2019-03-10T20:38:33.620Z,50.56
2019-03-10T20:41:03.121Z,50.32
2019-03-10T20:43:32.613Z,50.92
2019-03-10T20:46:02.148Z,51.83
2019-03-10T20:48:31.749Z,51.63
2019-03-10T20:51:01.163Z,52.12
2019-03-10T20:53:30.909Z,52.72
2019-03-10T20:56:00.538Z,53.68
2019-03-10T20:58:30.124Z,54.23
2019-03-10T21:00:59.685Z,54.50
2019-03-10T21:03:28.920Z,54.99
2019-03-10T21:05:58.382Z,54.70
2019-03-10T21:08:27.832Z,54.82
2019-03-10T21:10:57.385Z,54.56
2019-03-10T21:13:26.850Z,54.73
2019-03-10T21:15:56.338Z,54.48
2019-03-10T21:18:25.775Z,54.82
2019-03-10T21:20:55.245Z,54.78
2019-03-10T21:23:24.712Z,54.80
2019-03-10T21:25:54.396Z,54.92
2019-03-10T21:28:23.948Z,55.20
2019-03-10T21:30:53.416Z,55.98
2019-03-10T21:33:22.657Z,55.93
2019-03-10T21:35:52.196Z,56.43
2019-03-10T21:38:21.748Z,57.04
2019-03-10T21:40:51.459Z,56.67
2019-03-10T21:43:21.203Z,56.94
2019-03-10T21:45:50.538Z,57.23
2019-03-10T21:48:20.083Z,56.74
2019-03-10T21:50:49.657Z,56.88
2019-03-10T21:53:19.128Z,56.88
2019-03-10T21:55:48.642Z,56.91
2019-03-10T21:58:18.002Z,56.81
2019-03-10T22:00:48.301Z,56.36
2019-03-10T22:03:18.069Z,56.31
2019-03-10T22:05:47.590Z,56.09
2019-03-10T22:08:17.600Z,56.43
2019-03-10T22:10:46.919Z,56.23
2019-03-10T22:13:16.270Z,56.23
2019-03-10T22:15:45.738Z,56.18
2019-03-10T22:18:15.291Z,55.88
2019-03-10T22:20:44.806Z,61.57
2019-03-10T22:23:15.520Z,64.06
2019-03-10T22:25:44.953Z,64.12
2019-03-10T22:28:14.496Z,65.49
2019-03-10T22:30:44.161Z,64.92
2019-03-10T22:33:14.028Z,66.40
2019-03-10T22:35:43.609Z,67.48
2019-03-10T22:38:15.370Z,68.99
2019-03-10T22:40:45.239Z,69.32
2019-03-10T22:43:15.448Z,70.42
2019-03-10T22:45:44.910Z,70.56
2019-03-10T22:48:14.618Z,69.11
2019-03-10T22:50:43.941Z,69.32
2019-03-10T22:53:14.155Z,69.20
2019-03-10T22:55:43.592Z,68.37
2019-03-10T22:58:13.469Z,68.85
2019-03-10T23:00:44.657Z,69.08
2019-03-10T23:03:14.610Z,69.77
2019-03-10T23:05:44.141Z,69.83
2019-03-10T23:08:14.049Z,69.94
2019-03-10T23:10:43.525Z,69.91
2019-03-10T23:13:13.310Z,69.83
2019-03-10T23:15:42.917Z,70.49
2019-03-10T23:18:12.357Z,70.47
2019-03-10T23:20:42.270Z,70.60
2019-03-10T23:23:11.855Z,71.09
2019-03-10T23:25:41.228Z,71.08
2019-03-10T23:28:11.387Z,71.23
2019-03-10T23:30:40.989Z,71.20
2019-03-10T23:33:11.128Z,71.01
2019-03-10T23:35:40.827Z,71.06
2019-03-10T23:38:10.276Z,71.05
2019-03-10T23:40:39.968Z,71.10
2019-03-10T23:43:09.965Z,71.30
2019-03-10T23:45:39.476Z,71.06
2019-03-10T23:48:08.992Z,71.21
2019-03-10T23:50:38.436Z,71.82
2019-03-10T23:53:07.988Z,72.06
2019-03-10T23:55:37.445Z,71.97
2019-03-10T23:58:06.995Z,71.63
